sensor_id;sensor_type;location;lat;lon;timestamp;temperature;humidity
8882;DHT22;4477;48.736;9.176;2023-03-01T09:16:12;2.80;63.10
8882;DHT22;4477;48.736;9.176;2023-03-01T09:18:40;5.60;64.30
8882;DHT22;4477;48.736;9.176;2023-03-01T09:21:09;5.80;63.40
8882;DHT22;4477;48.736;9.176;2023-03-01T09:23:38;5.70;64.00
8882;DHT22;4477;48.736;9.176;2023-03-01T09:26:05;5.70;63.20
8882;DHT22;4477;48.736;9.176;2023-03-01T09:28:32;5.60;64.30
8882;DHT22;4477;48.736;9.176;2023-03-01T09:30:59;5.50;63.70
8882;DHT22;4477;48.736;9.176;2023-03-01T09:33:26;5.30;64.50
8882;DHT22;4477;48.736;9.176;2023-03-01T09:35:57;5.50;64.90
8882;DHT22;4477;48.736;9.176;2023-03-01T09:43:23;5.90;63.40
8882;DHT22;4477;48.736;9.176;2023-03-01T09:45:53;6.60;59.90
8882;DHT22;4477;48.736;9.176;2023-03-01T09:48:25;6.60;59.80
8882;DHT22;4477;48.736;9.176;2023-03-01T09:50:53;6.70;60.20
8882;DHT22;4477;48.736;9.176;2023-03-01T09:53:23;6.50;60.00
8882;DHT22;4477;48.736;9.176;2023-03-01T09:55:58;6.50;60.70
8882;DHT22;4477;48.736;9.176;2023-03-01T09:58:34;6.50;60.70
8882;DHT22;4477;48.736;9.176;2023-03-01T10:01:15;7.00;60.20
8882;DHT22;4477;48.736;9.176;2023-03-01T10:04:03;6.60;60.20
8882;DHT22;4477;48.736;9.176;2023-03-01T10:14:05;6.90;59.70
8882;DHT22;4477;48.736;9.176;2023-03-01T10:16:40;7.60;56.80
8882;DHT22;4477;48.736;9.176;2023-03-01T10:19:14;7.40;57.80
8882;DHT22;4477;48.736;9.176;2023-03-01T10:21:45;7.20;58.00
8882;DHT22;4477;48.736;9.176;2023-03-01T10:24:15;7.30;58.80
8882;DHT22;4477;48.736;9.176;2023-03-01T10:26:53;7.80;58.30
8882;DHT22;4477;48.736;9.176;2023-03-01T10:29:25;7.70;56.70
8882;DHT22;4477;48.736;9.176;2023-03-01T10:31:54;7.70;57.40
8882;DHT22;4477;48.736;9.176;2023-03-01T10:34:25;7.90;58.10
8882;DHT22;4477;48.736;9.176;2023-03-01T10:36:57;7.80;56.60
8882;DHT22;4477;48.736;9.176;2023-03-01T10:39:26;7.90;56.70
8882;DHT22;4477;48.736;9.176;2023-03-01T10:41:58;7.80;56.70
8882;DHT22;4477;48.736;9.176;2023-03-01T10:44:38;7.90;56.70
8882;DHT22;4477;48.736;9.176;2023-03-01T10:47:13;8.20;56.00
8882;DHT22;4477;48.736;9.176;2023-03-01T10:49:55;8.40;56.00
8882;DHT22;4477;48.736;9.176;2023-03-01T10:52:24;8.10;54.70
8882;DHT22;4477;48.736;9.176;2023-03-01T10:54:55;8.50;54.90
8882;DHT22;4477;48.736;9.176;2023-03-01T10:57:31;8.60;54.70
8882;DHT22;4477;48.736;9.176;2023-03-01T11:02:47;8.80;54.80
8882;DHT22;4477;48.736;9.176;2023-03-01T11:05:18;9.00;53.90
8882;DHT22;4477;48.736;9.176;2023-03-01T11:07:50;9.20;54.70
8882;DHT22;4477;48.736;9.176;2023-03-01T11:10:20;9.10;52.60
8882;DHT22;4477;48.736;9.176;2023-03-01T11:12:48;9.40;53.90
8882;DHT22;4477;48.736;9.176;2023-03-01T11:15:24;9.90;53.50
8882;DHT22;4477;48.736;9.176;2023-03-01T11:17:51;9.90;52.00
8882;DHT22;4477;48.736;9.176;2023-03-01T11:22:54;10.00;51.20
8882;DHT22;4477;48.736;9.176;2023-03-01T11:25:25;10.30;51.70
8882;DHT22;4477;48.736;9.176;2023-03-01T11:27:53;10.60;49.90
8882;DHT22;4477;48.736;9.176;2023-03-01T11:30:23;10.70;48.80
8882;DHT22;4477;48.736;9.176;2023-03-01T11:35:26;10.30;49.40
8882;DHT22;4477;48.736;9.176;2023-03-01T11:38:01;10.70;49.90
8882;DHT22;4477;48.736;9.176;2023-03-01T11:40:33;11.00;49.30
8882;DHT22;4477;48.736;9.176;2023-03-01T11:43:11;11.30;48.00
8882;DHT22;4477;48.736;9.176;2023-03-01T11:45:51;11.30;48.20
8882;DHT22;4477;48.736;9.176;2023-03-01T11:48:47;11.40;48.00
8882;DHT22;4477;48.736;9.176;2023-03-01T11:51:23;10.90;48.00
8882;DHT22;4477;48.736;9.176;2023-03-01T11:54:00;11.10;47.80
8882;DHT22;4477;48.736;9.176;2023-03-01T11:56:34;11.30;46.80
8882;DHT22;4477;48.736;9.176;2023-03-01T12:02:36;11.40;47.70
8882;DHT22;4477;48.736;9.176;2023-03-01T12:05:24;11.60;46.70
8882;DHT22;4477;48.736;9.176;2023-03-01T12:07:56;11.30;47.40
8882;DHT22;4477;48.736;9.176;2023-03-01T12:10:27;11.70;47.60
8882;DHT22;4477;48.736;9.176;2023-03-01T12:13:13;12.20;47.20
8882;DHT22;4477;48.736;9.176;2023-03-01T12:16:20;12.80;46.80
8882;DHT22;4477;48.736;9.176;2023-03-01T12:19:03;13.50;44.80
8882;DHT22;4477;48.736;9.176;2023-03-01T12:21:45;13.40;43.50
8882;DHT22;4477;48.736;9.176;2023-03-01T12:24:32;13.70;43.70
8882;DHT22;4477;48.736;9.176;2023-03-01T12:27:17;13.60;43.80
8882;DHT22;4477;48.736;9.176;2023-03-01T12:29:53;13.50;43.30
8882;DHT22;4477;48.736;9.176;2023-03-01T12:40:22;13.30;43.80
8882;DHT22;4477;48.736;9.176;2023-03-01T12:43:02;13.10;43.90
8882;DHT22;4477;48.736;9.176;2023-03-01T12:45:44;13.50;42.90
8882;DHT22;4477;48.736;9.176;2023-03-01T12:48:27;12.90;42.50
8882;DHT22;4477;48.736;9.176;2023-03-01T12:51:01;13.30;44.40
8882;DHT22;4477;48.736;9.176;2023-03-01T12:53:31;13.70;43.90
8882;DHT22;4477;48.736;9.176;2023-03-01T12:56:01;13.90;42.50
8882;DHT22;4477;48.736;9.176;2023-03-01T12:58:32;13.90;43.10
8882;DHT22;4477;48.736;9.176;2023-03-01T13:01:08;13.30;42.70
8882;DHT22;4477;48.736;9.176;2023-03-01T13:04:08;13.20;43.40
8882;DHT22;4477;48.736;9.176;2023-03-01T13:06:44;14.10;42.30
8882;DHT22;4477;48.736;9.176;2023-03-01T13:09:18;14.20;40.70
8882;DHT22;4477;48.736;9.176;2023-03-01T13:11:46;13.90;41.30
8882;DHT22;4477;48.736;9.176;2023-03-01T13:14:44;13.70;41.60
8882;DHT22;4477;48.736;9.176;2023-03-01T13:20:26;13.40;43.40
8882;DHT22;4477;48.736;9.176;2023-03-01T13:23:06;13.90;42.40
8882;DHT22;4477;48.736;9.176;2023-03-01T13:25:34;14.40;41.80
8882;DHT22;4477;48.736;9.176;2023-03-01T13:28:44;15.00;40.40
8882;DHT22;4477;48.736;9.176;2023-03-01T13:31:56;13.90;40.80
8882;DHT22;4477;48.736;9.176;2023-03-01T13:34:46;13.40;41.60
8882;DHT22;4477;48.736;9.176;2023-03-01T13:37:37;13.60;43.20
8882;DHT22;4477;48.736;9.176;2023-03-01T13:43:34;13.90;41.60
8882;DHT22;4477;48.736;9.176;2023-03-01T13:46:07;13.80;41.60
8882;DHT22;4477;48.736;9.176;2023-03-01T13:48:35;13.90;41.70
8882;DHT22;4477;48.736;9.176;2023-03-01T13:51:03;14.10;41.70
8882;DHT22;4477;48.736;9.176;2023-03-01T13:53:34;14.20;40.30
8882;DHT22;4477;48.736;9.176;2023-03-01T13:56:07;13.90;41.30
8882;DHT22;4477;48.736;9.176;2023-03-01T13:58:49;14.10;41.90
8882;DHT22;4477;48.736;9.176;2023-03-01T14:01:26;14.30;41.10
8882;DHT22;4477;48.736;9.176;2023-03-01T14:03:53;14.30;42.30
8882;DHT22;4477;48.736;9.176;2023-03-01T14:06:22;14.50;40.50
8882;DHT22;4477;48.736;9.176;2023-03-01T14:08:59;14.90;39.50
8882;DHT22;4477;48.736;9.176;2023-03-01T14:11:54;14.90;40.00
8882;DHT22;4477;48.736;9.176;2023-03-01T14:14:48;14.90;39.90
8882;DHT22;4477;48.736;9.176;2023-03-01T14:17:39;14.00;41.40
8882;DHT22;4477;48.736;9.176;2023-03-01T14:20:19;13.60;41.40
8882;DHT22;4477;48.736;9.176;2023-03-01T14:22:48;12.90;42.60
8882;DHT22;4477;48.736;9.176;2023-03-01T14:25:25;13.40;42.50
8882;DHT22;4477;48.736;9.176;2023-03-01T14:28:03;13.00;43.70
8882;DHT22;4477;48.736;9.176;2023-03-01T14:30:35;13.50;43.20
8882;DHT22;4477;48.736;9.176;2023-03-01T14:33:15;13.40;42.00
8882;DHT22;4477;48.736;9.176;2023-03-01T14:35:52;13.60;43.50
8882;DHT22;4477;48.736;9.176;2023-03-01T14:38:20;13.70;42.30
8882;DHT22;4477;48.736;9.176;2023-03-01T14:40:51;13.90;41.30
8882;DHT22;4477;48.736;9.176;2023-03-01T14:43:23;14.30;41.70
8882;DHT22;4477;48.736;9.176;2023-03-01T14:45:52;13.80;41.10
8882;DHT22;4477;48.736;9.176;2023-03-01T14:48:19;13.50;42.10
8882;DHT22;4477;48.736;9.176;2023-03-01T14:50:47;13.70;42.30
8882;DHT22;4477;48.736;9.176;2023-03-01T14:53:17;13.90;41.50
8882;DHT22;4477;48.736;9.176;2023-03-01T14:55:47;13.70;41.90
8882;DHT22;4477;48.736;9.176;2023-03-01T14:58:19;13.60;42.20
8882;DHT22;4477;48.736;9.176;2023-03-01T15:00:49;13.30;41.60
8882;DHT22;4477;48.736;9.176;2023-03-01T15:03:23;13.20;43.80
8882;DHT22;4477;48.736;9.176;2023-03-01T15:05:51;13.40;42.10
8882;DHT22;4477;48.736;9.176;2023-03-01T15:08:22;13.50;41.60
8882;DHT22;4477;48.736;9.176;2023-03-01T15:10:59;13.30;41.30
8882;DHT22;4477;48.736;9.176;2023-03-01T15:13:30;13.30;41.90
8882;DHT22;4477;48.736;9.176;2023-03-01T15:16:04;13.70;42.30
8882;DHT22;4477;48.736;9.176;2023-03-01T15:18:34;13.80;41.30
8882;DHT22;4477;48.736;9.176;2023-03-01T15:21:06;13.40;42.10
8882;DHT22;4477;48.736;9.176;2023-03-01T15:23:34;13.20;43.30
8882;DHT22;4477;48.736;9.176;2023-03-01T15:40:54;13.00;43.30
8882;DHT22;4477;48.736;9.176;2023-03-01T15:43:43;9.50;50.50
8882;DHT22;4477;48.736;9.176;2023-03-01T15:46:26;9.00;53.00
8882;DHT22;4477;48.736;9.176;2023-03-01T15:48:56;9.00;51.90
8882;DHT22;4477;48.736;9.176;2023-03-01T15:58:56;8.90;51.50
8882;DHT22;4477;48.736;9.176;2023-03-01T16:01:23;7.70;54.10
8882;DHT22;4477;48.736;9.176;2023-03-01T16:03:51;7.70;54.40
8882;DHT22;4477;48.736;9.176;2023-03-01T16:06:19;7.80;54.20
8882;DHT22;4477;48.736;9.176;2023-03-01T16:08:47;7.60;54.60
8882;DHT22;4477;48.736;9.176;2023-03-01T16:11:16;7.50;54.60
8882;DHT22;4477;48.736;9.176;2023-03-01T16:13:43;7.20;55.80
8882;DHT22;4477;48.736;9.176;2023-03-01T16:16:11;6.90;56.60
8882;DHT22;4477;48.736;9.176;2023-03-01T16:18:41;6.60;56.70
8882;DHT22;4477;48.736;9.176;2023-03-01T16:21:13;6.30;57.10
8882;DHT22;4477;48.736;9.176;2023-03-01T16:23:41;6.00;58.30
8882;DHT22;4477;48.736;9.176;2023-03-01T16:26:09;5.80;58.70
8882;DHT22;4477;48.736;9.176;2023-03-01T16:28:36;5.40;59.20
8882;DHT22;4477;48.736;9.176;2023-03-01T16:31:03;5.20;59.90
8882;DHT22;4477;48.736;9.176;2023-03-01T16:33:31;5.10;60.30
8882;DHT22;4477;48.736;9.176;2023-03-01T16:35:57;4.90;60.70
8882;DHT22;4477;48.736;9.176;2023-03-01T16:38:25;4.70;61.30
8882;DHT22;4477;48.736;9.176;2023-03-01T16:40:52;4.60;62.00
8882;DHT22;4477;48.736;9.176;2023-03-01T16:43:20;4.40;62.50
8882;DHT22;4477;48.736;9.176;2023-03-01T16:50:41;4.30;63.10
8882;DHT22;4477;48.736;9.176;2023-03-01T16:53:08;3.80;64.70
8882;DHT22;4477;48.736;9.176;2023-03-01T16:55:35;3.70;65.00
8882;DHT22;4477;48.736;9.176;2023-03-01T16:58:03;3.70;65.20
8882;DHT22;4477;48.736;9.176;2023-03-01T17:00:32;3.70;65.60
8882;DHT22;4477;48.736;9.176;2023-03-01T17:02:59;3.60;65.20
8882;DHT22;4477;48.736;9.176;2023-03-01T17:05:26;3.70;65.40
8882;DHT22;4477;48.736;9.176;2023-03-01T17:07:52;3.50;65.90
8882;DHT22;4477;48.736;9.176;2023-03-01T17:10:21;3.30;66.90
